KVEL

Details ICAO KVEL (VEL)
Name VERNAL
Region United States
Timezone America/Denver (UTC-7.0)
Plans Departing 1
Arriving 3
Stats Elevation 5,278 ft / 1,609 m (AMSL)
Location 40.441560° -109.509776°
Runways 2
Magnetic Variation 10.424° E
Sunrise 2017-12-17 14:37:01 UTC / 2017-12-17 07:37:01 Local
Sunset 2017-12-17 23:54:20 UTC / 2017-12-17 16:54:20 Local
Advertisement - Login to hide

Runways

ID Width Length Bearing (true) Bearing (mag) Surface Threshold Offset Overrun Length
07 60 ft / 18 m 4,098 ft / 1,249 m 89.26° 78.84° Asphalt 0 ft / 0 m 0 ft / 0 m
16 150 ft / 46 m 6,210 ft / 1,893 m 179.02° 168.60° Asphalt 0 ft / 0 m 0 ft / 0 m
25 60 ft / 18 m 4,098 ft / 1,249 m 269.27° 258.85° Asphalt 0 ft / 0 m 0 ft / 0 m
34 150 ft / 46 m 6,210 ft / 1,893 m 359.02° 348.60° Asphalt 0 ft / 0 m 0 ft / 0 m

Map

Weather


0- 5 10 15 20 25 30 35+ Temperature / ° C

Clouds and Precipitation
Forecast for 2017-12-17 12:00 UTC. Updated an hour ago

Ground ~20,000 ft ~40,000 ft Winds

METAR

KVEL 170753Z AUTO 00000KT 10SM CLR M04/M10 A2992 RMK AO2 SLP148 T10391100

TAF

KVEL 170537Z 1706/1806 VRB03KT P6SM BKN150

Frequencies

Recorded 135.17 MHz ASOS
Unicom 122.70 MHz CTAF/UNICOM
Warning: Do not use this data for real-world aviation or navigation. No guarantee of current accuracy is given.